Moapa Valley, Nevada Weather observations

Data are for 10 minute period ending at time listed.
 Day   Time   Solar   Ave.   Ave.  Ave.  Vector  Max.   Baro.   Total    
  of    of     Rad.   Air    Rel.  Wind   Wind   Wind  Press.  Precip.   
Year   Day            Temp.  Hum.  Speed  Dir.   Gust                    
2014   (PST)  Kw/m2    F      %     mph   deg.    mph    mb.     in.     
-------------------------------------------------------------------------
 353   18:50   0.00   47.8    82    1.2   296     2.4   975.1    0.00 
 353   19:00   0.00   47.6    84    1.3    36     2.1   975.0    0.00 
 353   19:10   0.00   47.3    85    1.6   340     2.1   975.0    0.00 
 353   19:20   0.00   47.0    86    1.1   342     1.7   974.8    0.00 
 353   19:30   0.00   46.7    88    0.1   186     1.3   974.6    0.00 
 353   19:40   0.00   46.7    88    2.0   224     2.8   974.6    0.00 
 353   19:50   0.00   46.8    88    1.5   225     2.1   974.6    0.00 
 353   20:00   0.00   46.4    88    0.0   347     1.0   974.7    0.00 
 353   20:10   0.00   46.1    89    0.8     0     2.1   974.7    0.00 
 353   20:20   0.00   46.5    89    2.2    55     3.5   974.5    0.00 
 353   20:30   0.00   47.4    87    1.2    48     3.1   974.4    0.00 
 353   20:40   0.00   47.3    88    3.5   254     5.3   974.7    0.00 
 353   20:50   0.00   47.4    87    3.1   250     4.9   974.7    0.00 
 353   21:00   0.00   46.5    88    2.0     8     3.5   974.6    0.00 
 353   21:10   0.00   45.8    91    2.3   344     3.5   974.8    0.00 
 353   21:20   0.00   45.7    91    2.9   359     3.8   974.9    0.00 
 353   21:30   0.00   45.9    91    2.1   323     4.2   975.0    0.00 
 353   21:40   0.00   45.6    91    2.5   277     3.8   975.1    0.00 
 353   21:50   0.00   45.7    91    1.4   275     3.1   975.2    0.00 
 353   22:00   0.00   45.0    92    1.2   316     1.7   975.3    0.00 
 353   22:10   0.00   45.4    93    1.8   289     2.4   975.3    0.00 
 353   22:20   0.00   43.7    92    1.0   116     1.7   975.4    0.00 
 353   22:30   0.00   42.6    94    0.1   127     1.3   975.4    0.00 
 353   22:40   0.00   42.3    96    0.0     0     0.0   975.3    0.00 
 353   22:50   0.00   42.2    96    0.4   314     2.1   975.3    0.00 
 353   23:00   0.00   41.0    96    0.5   302     2.1   975.3    0.00 
 353   23:10   0.00   40.7    97    0.0    24     1.0   975.3    0.00 
 353   23:20   0.00   40.6    98    1.3   310     2.1   975.2    0.00 
 353   23:30   0.00   39.7    98    0.9   148     2.1   975.1    0.00 
 353   23:40   0.00   39.2    98    0.2    28     1.3   974.9    0.00 
 353   23:50   0.00   38.7    99    1.2    17     2.1   974.7    0.00 
 354    0:00   0.00   38.3    99    0.5   354     2.1   974.6    0.00 
 354    0:10   0.00   38.8    99    1.3   347     2.4   974.6    0.00 
 354    0:20   0.00   38.4    99    0.0     0     0.0   974.6    0.00 
 354    0:30   0.00   39.0    99    1.0   333     2.1   974.4    0.00 
 354    0:40   0.00   38.5    99    0.6   277     1.7   974.3    0.00 
 354    0:50   0.00   39.5   100    2.6   275     4.2   974.3    0.00 
 354    1:00   0.00   39.6   100    3.0   278     4.2   974.5    0.00 
 354    1:10   0.00   38.7    99    1.6   312     3.5   974.7    0.00 
 354    1:20   0.00   39.0   100    2.1   341     3.1   974.8    0.00 
 354    1:30   0.00   39.9   100    1.6   345     2.4   974.7    0.00 
 354    1:40   0.00   40.7   100    1.6   350     2.4   974.7    0.00 
 354    1:50   0.00   41.0   100    0.5   314     1.7   974.6    0.00 
 354    2:00   0.00   40.0    99    1.5   218     3.1   974.5    0.00 
 354    2:10   0.00   39.3    99    1.1   167     2.1   974.5    0.00 
 354    2:20   0.00   38.2    99    1.0    98     2.1   974.6    0.00 
 354    2:30   0.00   38.8   100    0.7    81     2.4   974.6    0.00 
 354    2:40   0.00   38.0   100    0.6   290     2.1   974.6    0.00 
 354    2:50   0.00   37.5   100    0.7   300     1.7   974.5    0.00 
 354    3:00   0.00   37.4   100    2.1   334     3.1   974.5    0.00 
 354    3:10   0.00   37.5   100    2.0   325     2.8   974.5    0.00 
 354    3:20   0.00   36.3   100    1.6   308     2.4   974.6    0.00 
 354    3:30   0.00   37.1   100    1.5   326     2.4   974.5    0.00 
 354    3:40   0.00   37.3   100    2.3   298     3.1   974.6    0.00 
 354    3:50   0.00   38.0   100    2.2   289     3.1   974.6    0.00 
 354    4:00   0.00   37.1   100    1.3   342     2.4   974.5    0.00 
 354    4:10   0.00   37.3   100    2.3   336     3.5   974.8    0.00 
 354    4:20   0.00   38.1   100    2.6   324     3.8   974.7    0.00 
 354    4:30   0.00   38.3   100    3.3   296     4.2   974.7    0.00 
 354    4:40   0.00   37.9   100    2.9   294     3.5   974.7    0.00 
 354    4:50   0.00   38.5   100    1.8   282     2.4   974.6    0.00 
 354    5:00   0.00   38.1   100    0.1   296     1.0   974.5    0.00 
 354    5:10   0.00   36.8   100    0.5    76     2.1   974.7    0.00 
 354    5:20   0.00   36.1   100    0.3    76     1.3   974.8    0.00 
 354    5:30   0.00   36.0   100    0.0     0     0.0   974.7    0.00 
 354    5:40   0.00   35.4   100    0.7   224     2.1   974.7    0.00 
 354    5:50   0.00   35.2   100    0.1   316     1.3   974.6    0.00 
 354    6:00   0.00   34.7   100    0.7   341     2.1   974.5    0.00 
 354    6:10   0.00   34.6   100    1.5   336     2.4   974.3    0.00 
 354    6:20   0.00   35.3   100    0.7     5     2.1   974.1    0.00 
 354    6:30   0.00   35.2   100    0.8    19     2.1   973.9    0.00 
 354    6:40   0.01   35.3   100    1.5   302     2.8   974.1    0.00 
 354    6:50   0.01   35.7   100    1.2   343     2.1   974.2    0.00 
 354    7:00   0.03   35.3   100    0.7   280     1.7   974.5    0.00 
 354    7:10   0.05   36.6   100    0.2   281     1.3   974.6    0.00 
 354    7:20   0.06   37.1   100    1.3   278     3.1   975.0    0.00 
 354    7:30   0.09   38.4   100    0.9   277     2.4   975.0    0.00 
 354    7:40   0.08   39.2   100    2.0   304     3.8   975.1    0.00 
 354    7:50   0.10   40.8   100    2.5   337     3.5   975.2    0.00 
 354    8:00   0.12   42.0    99    2.1   334     3.8   975.3    0.00 
 354    8:10   0.10   42.6    95    1.2   328     3.1   975.4    0.00 
 354    8:20   0.09   42.6    94    1.5   170     2.8   975.3    0.00 
 354    8:30   0.11   42.0    95    0.7   158     2.4   975.3    0.00 
 354    8:40   0.12   42.5    95    1.0   228     2.4   975.5    0.00 
 354    8:50   0.14   43.2    93    1.5   252     2.4   975.7    0.00 
 354    9:00   0.15   43.9    91    1.3   269     2.8   976.0    0.00 
 354    9:10   0.16   44.5    89    0.5   271     2.8   976.0    0.00 
 354    9:20   0.17   45.1    88    2.0   291     2.8   976.2    0.00 
 354    9:30   0.22   45.4    87    3.4   307     5.3   976.4    0.00 
 354    9:40   0.24   45.8    87    3.6   330     5.6   976.5    0.00 
 354    9:50   0.29   46.3    86    3.4   342     4.9   976.2    0.00 
 354   10:00   0.32   47.0    84    2.3   337     3.8   976.0    0.00 
 354   10:10   0.33   47.7    82    3.1   288     4.9   976.0    0.00 
 354   10:20   0.37   48.3    80    2.3   262     4.9   975.9    0.00 
 354   10:30   0.36   49.2    79    1.1   159     2.1   975.5    0.00 
 354   10:40   0.39   50.4    75    1.6   256     3.5   975.5    0.00 
 354   10:50   0.43   50.6    73    1.9   264     3.5   975.3    0.00 
 354   11:00   0.40   51.4    71    1.4   292     3.5   975.1    0.00 
 354   11:10   0.48   51.5    69    2.0   320     4.2   974.7    0.00 
 354   11:20   0.39   51.8    68    1.6     3     3.5   974.5    0.00 
 354   11:30   0.55   53.1    66    2.0   348     4.9   974.4    0.00 
 354   11:40   0.60   53.6    64    2.7   275     4.9   974.3    0.00 
 354   11:50   0.60   55.1    60    2.4   280     4.9   974.2    0.00 
 354   12:00   0.51   55.2    60    3.4   304     6.7   974.4    0.00 
 354   12:10   0.45   54.4    60    3.9   309     7.4   974.3    0.00 
 354   12:20   0.42   54.1    59    3.4   337     6.0   974.0    0.00 
 354   12:30   0.38   54.8    58    2.7    11     4.9   973.4    0.00 
 354   12:40   0.34   54.4    60    1.9   324     4.2   973.5    0.00 
 354   12:50   0.49   55.4    58    2.9   332     5.6   973.6    0.00 
 354   13:00   0.27   55.3    58    3.3   282     5.6   973.4    0.00 
 354   13:10   0.28   54.7    60    3.6   356     4.9   973.6    0.00 
 354   13:20   0.39   55.1    58    3.1   346     4.9   973.3    0.00 
 354   13:30   0.27   55.5    58    1.9    35     4.2   973.0    0.00 
 354   13:40   0.22   55.5    58    1.8    30     3.8   972.7    0.00 
 354   13:50   0.21   55.3    57    0.9     6     3.5   972.2    0.00 
 354   14:00   0.26   55.7    57    1.5    72     3.1   972.0    0.00 
 354   14:10   0.31   56.2    55    1.4    11     2.8   972.0    0.00 
 354   14:20   0.34   56.7    55    2.1   310     3.8   972.5    0.00 
 354   14:30   0.25   57.2    54    2.1     0     4.6   972.8    0.00 
 354   14:40   0.20   56.0    56    2.3    26     4.6   972.7    0.00 
 354   14:50   0.21   56.1    56    2.5     1     3.8   972.6    0.00 
 354   15:00   0.21   56.4    55    1.9    17     4.2   972.7    0.00 
 354   15:10   0.12   56.0    56    2.8   352     4.9   973.0    0.00 
 354   15:20   0.12   55.8    58    2.6   315     3.8   973.2    0.00 
 354   15:30   0.11   55.8    56    1.7   353     2.8   973.1    0.00 
 354   15:40   0.08   55.8    55    0.7   210     2.1   972.8    0.00 
 354   15:50   0.08   55.6    58    1.2   232     2.4   972.7    0.00 
 354   16:00   0.04   55.4    58    2.3   268     3.1   972.9    0.00 
 354   16:10   0.03   54.4    59    2.0   251     2.4   972.6    0.00 
 354   16:20   0.01   53.6    62    0.7   315     1.7   972.6    0.00 
 354   16:30   0.00   51.9    67    1.7   325     2.8   972.9    0.00 
 354   16:40   0.00   50.8    70    2.1     5     2.8   973.3    0.00 
 354   16:50   0.00   50.3    72    1.3   357     2.4   973.4    0.00 
 354   17:00   0.00   49.6    73    1.6   189     2.4   973.3    0.00 
 354   17:10   0.00   49.6    73    0.9   159     2.4   973.3    0.00 
 354   17:20   0.00   49.7    72    1.8   357     2.4   973.4    0.00 
 354   17:30   0.00   48.2    76    1.2   326     2.4   973.4    0.00 
 354   17:40   0.00   47.5    78    2.2   312     2.8   973.6    0.00 
 354   17:50   0.00   47.0    79    1.8   315     2.4   973.7    0.00 
 354   18:00   0.00   46.7    80    0.6   201     1.7   973.4    0.00 
 354   18:10   0.00   46.6    81    0.9   214     2.1   973.3    0.00 
 354   18:20   0.00   46.4    82    0.3    52     1.3   973.2    0.00 
 354   18:30   0.00   45.0    84    0.3   302     1.3   973.3    0.00 
 354   18:40   0.00   44.9    86    1.2    53     2.4   973.2    0.00 

Return to Moapa Valley graphs page.


Western Regional Climate Center,wrcc@dri.edu